Time;durP1;ratioP1;P1;durP2;ratioP2;P2;SDS_P1;SDS_P2;PMS_P1;PMS_P2;Temp;Humidity;BMP_temperature;BMP_pressure;BME280_temperature;BME280_humidity;BME280_pressure;Samples;Min_cycle;Max_cycle;Signal;HPM_P1;HPM_P2
2022/06/19 00:00:12;;;;;;;8.25;2.30;;;;;;;;;;2100872;28;20056;-57
2022/06/19 00:01:31;;;;;;;5.03;1.50;;;;;;;;;;2101218;28;20032;-58
2022/06/19 00:02:50;;;;;;;4.18;1.33;;;;;;;;;;2101491;28;20051;-58
2022/06/19 00:04:09;;;;;;;4.57;1.50;;;;;;;;;;2102275;28;20390;-59
2022/06/19 00:05:28;;;;;;;7.13;1.67;;;;;;;;;;2100510;28;20036;-59
2022/06/19 00:06:47;;;;;;;6.60;1.27;;;;;;;;;;2101979;28;20028;-58
2022/06/19 00:08:06;;;;;;;2.85;1.27;;;;;;;;;;2101254;28;20482;-59
2022/06/19 00:09:26;;;;;;;3.20;1.15;;;;;;;;;;2102101;28;20032;-59
2022/06/19 00:10:44;;;;;;;4.90;1.35;;;;;;;;;;2101963;28;20120;-59
2022/06/19 00:12:04;;;;;;;3.85;1.70;;;;;;;;;;2100304;28;20529;-59
2022/06/19 00:13:23;;;;;;;7.53;1.10;;;;;;;;;;2102866;28;20062;-59
2022/06/19 00:14:42;;;;;;;6.47;1.38;;;;;;;;;;2102836;28;20036;-59
2022/06/19 00:16:01;;;;;;;3.03;1.38;;;;;;;;;;2098707;28;20024;-58
2022/06/19 00:17:20;;;;;;;6.30;1.33;;;;;;;;;;2101414;28;20025;-59
2022/06/19 00:18:38;;;;;;;5.85;1.02;;;;;;;;;;2102789;28;20048;-59
2022/06/19 00:19:57;;;;;;;3.10;1.00;;;;;;;;;;2101600;28;20029;-59
2022/06/19 00:21:17;;;;;;;6.47;1.48;;;;;;;;;;2101137;28;20024;-59
2022/06/19 00:22:36;;;;;;;3.13;0.82;;;;;;;;;;2102268;28;20028;-59
2022/06/19 00:23:55;;;;;;;3.85;1.20;;;;;;;;;;2100866;28;20490;-58
2022/06/19 00:25:15;;;;;;;3.85;1.10;;;;;;;;;;2101839;28;20099;-59
2022/06/19 00:26:34;;;;;;;3.35;0.90;;;;;;;;;;2101879;28;20410;-60
2022/06/19 00:27:53;;;;;;;5.97;1.13;;;;;;;;;;2102137;28;20098;-57
2022/06/19 00:29:12;;;;;;;2.75;1.05;;;;;;;;;;2102359;28;20028;-56
2022/06/19 00:30:31;;;;;;;4.15;0.85;;;;;;;;;;2100989;28;20511;-59
2022/06/19 00:31:50;;;;;;;4.88;0.88;;;;;;;;;;2101351;28;20023;-58
2022/06/19 00:33:09;;;;;;;1.25;0.75;;;;;;;;;;2102133;28;20024;-59
2022/06/19 00:34:28;;;;;;;4.85;0.80;;;;;;;;;;2102421;28;20028;-59
2022/06/19 00:35:47;;;;;;;4.60;0.85;;;;;;;;;;2100369;28;20025;-59
2022/06/19 00:37:06;;;;;;;4.75;1.05;;;;;;;;;;2101895;28;20028;-58
2022/06/19 00:38:25;;;;;;;3.67;0.80;;;;;;;;;;2101436;28;20032;-59
2022/06/19 00:39:44;;;;;;;2.85;1.27;;;;;;;;;;2100839;28;20021;-58
2022/06/19 00:41:03;;;;;;;3.38;1.10;;;;;;;;;;2101967;28;20494;-58
2022/06/19 00:42:24;;;;;;;5.22;0.95;;;;;;;;;;2100715;28;20036;-59
2022/06/19 00:44:00;;;;;;;3.72;1.02;;;;;;;;;;2101494;28;20486;-58
2022/06/19 00:45:37;;;;;;;1.23;0.95;;;;;;;;;;2100682;28;20028;-60
2022/06/19 00:47:02;;;;;;;6.47;1.10;;;;;;;;;;2100891;28;20397;-59
2022/06/19 00:48:31;;;;;;;2.42;1.08;;;;;;;;;;2102286;28;20028;-59
2022/06/19 00:50:08;;;;;;;4.70;1.50;;;;;;;;;;2102046;28;20100;-59
2022/06/19 00:51:27;;;;;;;2.47;1.00;;;;;;;;;;2100588;28;20025;-60
2022/06/19 00:52:46;;;;;;;4.93;0.98;;;;;;;;;;2100083;28;20024;-60
2022/06/19 00:54:06;;;;;;;3.03;1.00;;;;;;;;;;2101025;28;20032;-60
2022/06/19 00:55:28;;;;;;;6.57;1.42;;;;;;;;;;2100594;28;20025;-59
2022/06/19 00:56:47;;;;;;;2.70;0.60;;;;;;;;;;2102033;28;20052;-60
2022/06/19 00:58:09;;;;;;;4.22;1.00;;;;;;;;;;2101526;28;20028;-59
2022/06/19 00:59:28;;;;;;;2.67;0.88;;;;;;;;;;2101480;28;20032;-59
2022/06/19 01:00:50;;;;;;;5.03;0.88;;;;;;;;;;2100794;28;20028;-58
2022/06/19 01:02:09;;;;;;;3.00;0.90;;;;;;;;;;2101777;28;20036;-59
2022/06/19 01:03:36;;;;;;;3.28;0.80;;;;;;;;;;2101841;28;20036;-60
2022/06/19 01:04:55;;;;;;;2.17;0.68;;;;;;;;;;2101709;28;20029;-58
2022/06/19 01:06:15;;;;;;;3.85;0.88;;;;;;;;;;2097581;28;20036;-58
2022/06/19 01:07:34;;;;;;;1.15;0.90;;;;;;;;;;2101647;28;20036;-59
2022/06/19 01:08:55;;;;;;;3.33;0.88;;;;;;;;;;2102024;28;20032;-59
2022/06/19 01:10:14;;;;;;;3.90;0.90;;;;;;;;;;2101495;28;20032;-59
2022/06/19 01:11:34;;;;;;;1.13;0.80;;;;;;;;;;2099559;28;20070;-59
2022/06/19 01:12:55;;;;;;;2.78;0.90;;;;;;;;;;2100646;28;20036;-59
2022/06/19 01:14:16;;;;;;;1.98;0.70;;;;;;;;;;2102443;28;20032;-59
2022/06/19 01:15:38;;;;;;;3.17;1.00;;;;;;;;;;2100494;28;20029;-59
2022/06/19 01:16:59;;;;;;;3.20;0.73;;;;;;;;;;2099786;28;20110;-59
2022/06/19 01:18:19;;;;;;;5.28;0.95;;;;;;;;;;2101482;28;20029;-60
2022/06/19 01:19:41;;;;;;;3.53;0.90;;;;;;;;;;2100472;28;20036;-59
2022/06/19 01:21:20;;;;;;;1.65;0.80;;;;;;;;;;2101898;28;20855;-58
2022/06/19 01:22:44;;;;;;;2.60;0.77;;;;;;;;;;2101843;28;20490;-59
2022/06/19 01:24:06;;;;;;;1.95;0.80;;;;;;;;;;2101896;28;20056;-59
2022/06/19 01:25:27;;;;;;;3.08;0.70;;;;;;;;;;2102051;28;20028;-58
2022/06/19 01:26:48;;;;;;;1.35;0.60;;;;;;;;;;2100365;28;20032;-60
2022/06/19 01:29:47;;;;;;;3.80;1.05;;;;;;;;;;2101810;28;20070;-60
2022/06/19 01:31:06;;;;;;;1.77;1.00;;;;;;;;;;2102273;28;20028;-59
2022/06/19 01:32:25;;;;;;;2.42;0.98;;;;;;;;;;2099737;28;20024;-59
2022/06/19 01:34:31;;;;;;;1.38;0.75;;;;;;;;;;2102439;28;20396;-59
2022/06/19 01:35:52;;;;;;;3.53;0.93;;;;;;;;;;2102620;28;20119;-59
2022/06/19 01:37:10;;;;;;;2.33;0.70;;;;;;;;;;2101006;28;20024;-59
2022/06/19 01:38:32;;;;;;;1.52;0.57;;;;;;;;;;2100620;28;20126;-59
2022/06/19 01:39:57;;;;;;;1.73;0.80;;;;;;;;;;2101045;28;20036;-57
2022/06/19 01:41:19;;;;;;;2.00;1.02;;;;;;;;;;2101548;28;20491;-58
2022/06/19 01:42:38;;;;;;;3.17;0.80;;;;;;;;;;2101418;28;20057;-58
2022/06/19 01:43:57;;;;;;;3.97;1.20;;;;;;;;;;2099830;28;20094;-59
2022/06/19 01:45:16;;;;;;;1.15;0.73;;;;;;;;;;2100790;28;20491;-60
2022/06/19 01:46:35;;;;;;;3.17;0.80;;;;;;;;;;2100884;28;20533;-58
2022/06/19 01:47:54;;;;;;;3.83;0.80;;;;;;;;;;2102276;28;20088;-59
2022/06/19 01:49:13;;;;;;;3.58;0.77;;;;;;;;;;2103517;28;20036;-59
2022/06/19 01:50:32;;;;;;;4.28;1.00;;;;;;;;;;2101094;28;20025;-58
2022/06/19 01:51:52;;;;;;;2.75;1.20;;;;;;;;;;2100633;28;20482;-59
2022/06/19 01:53:23;;;;;;;2.83;1.05;;;;;;;;;;2101620;28;20510;-60
2022/06/19 01:54:43;;;;;;;1.67;0.75;;;;;;;;;;2101539;28;20032;-58
2022/06/19 01:56:03;;;;;;;1.98;0.80;;;;;;;;;;2101242;28;20489;-59
2022/06/19 01:57:22;;;;;;;4.13;0.98;;;;;;;;;;2100536;28;20024;-59
2022/06/19 01:58:45;;;;;;;2.80;0.75;;;;;;;;;;2101586;28;20024;-59
2022/06/19 02:00:05;;;;;;;1.13;0.73;;;;;;;;;;2099336;28;20463;-58
2022/06/19 02:01:26;;;;;;;5.10;0.75;;;;;;;;;;2101404;28;20024;-59
2022/06/19 02:02:47;;;;;;;1.73;0.90;;;;;;;;;;2100370;28;20032;-61
2022/06/19 02:04:07;;;;;;;2.13;0.90;;;;;;;;;;2101065;28;20028;-59
2022/06/19 02:05:26;;;;;;;2.50;0.77;;;;;;;;;;2101085;28;20024;-60
2022/06/19 02:06:47;;;;;;;1.60;0.70;;;;;;;;;;2100396;28;20048;-57
2022/06/19 02:08:06;;;;;;;1.83;0.60;;;;;;;;;;2099563;28;20032;-59
2022/06/19 02:09:26;;;;;;;1.83;0.80;;;;;;;;;;2102079;28;20032;-59
2022/06/19 02:10:45;;;;;;;2.10;1.20;;;;;;;;;;2100572;28;20028;-58
2022/06/19 02:12:05;;;;;;;3.17;0.82;;;;;;;;;;2099456;28;20367;-59
2022/06/19 02:13:24;;;;;;;2.78;0.70;;;;;;;;;;2100768;28;20025;-59
2022/06/19 02:14:42;;;;;;;1.65;1.13;;;;;;;;;;2100186;28;20016;-59
2022/06/19 02:16:04;;;;;;;2.67;0.85;;;;;;;;;;2100130;28;20028;-59
2022/06/19 02:17:29;;;;;;;3.78;1.00;;;;;;;;;;2100518;28;20025;-60
2022/06/19 02:18:50;;;;;;;2.28;1.13;;;;;;;;;;2101418;28;20033;-58
2022/06/19 02:20:10;;;;;;;3.08;0.90;;;;;;;;;;2101002;28;20025;-59
2022/06/19 02:21:37;;;;;;;5.25;1.52;;;;;;;;;;2100912;28;20063;-59
2022/06/19 02:22:57;;;;;;;4.55;1.00;;;;;;;;;;2098967;28;20028;-59
2022/06/19 02:24:19;;;;;;;2.30;1.13;;;;;;;;;;2101166;28;20036;-58
2022/06/19 02:25:40;;;;;;;2.67;1.17;;;;;;;;;;2101129;28;20493;-60
2022/06/19 02:27:00;;;;;;;1.85;0.90;;;;;;;;;;2100484;28;20036;-59
2022/06/19 02:28:19;;;;;;;1.10;0.73;;;;;;;;;;2104379;28;20123;-59
2022/06/19 02:29:39;;;;;;;2.63;0.95;;;;;;;;;;2102445;28;20040;-59
2022/06/19 02:30:58;;;;;;;2.80;1.20;;;;;;;;;;2100199;28;20457;-60
2022/06/19 02:32:22;;;;;;;2.90;1.02;;;;;;;;;;2101571;28;20032;-60
2022/06/19 02:34:01;;;;;;;2.28;1.08;;;;;;;;;;2100576;28;20040;-60
2022/06/19 02:35:21;;;;;;;3.05;0.88;;;;;;;;;;2099589;28;20024;-59
2022/06/19 02:36:45;;;;;;;1.50;0.65;;;;;;;;;;2100313;28;20545;-59
2022/06/19 02:38:05;;;;;;;5.22;1.13;;;;;;;;;;2100869;28;20036;-60
2022/06/19 02:39:43;;;;;;;2.88;0.68;;;;;;;;;;2100146;28;20032;-59
2022/06/19 02:41:28;;;;;;;2.42;0.68;;;;;;;;;;2100717;28;20040;-60
2022/06/19 02:42:48;;;;;;;3.65;0.80;;;;;;;;;;2100436;28;20064;-60
2022/06/19 02:44:06;;;;;;;2.22;0.82;;;;;;;;;;2099399;28;20032;-60
2022/06/19 02:45:27;;;;;;;3.67;0.90;;;;;;;;;;2099266;28;20036;-60
2022/06/19 02:46:46;;;;;;;2.80;0.90;;;;;;;;;;2101280;28;20114;-60
2022/06/19 02:48:05;;;;;;;1.55;0.82;;;;;;;;;;2100974;28;20036;-59
2022/06/19 02:49:24;;;;;;;3.28;0.70;;;;;;;;;;2100332;28;20444;-58
2022/06/19 02:50:43;;;;;;;3.45;0.90;;;;;;;;;;2099281;28;20453;-59
2022/06/19 02:52:04;;;;;;;3.03;0.82;;;;;;;;;;2100845;28;20060;-60
2022/06/19 02:53:23;;;;;;;1.50;0.57;;;;;;;;;;2099948;28;20024;-58
2022/06/19 02:54:41;;;;;;;5.60;1.00;;;;;;;;;;2101277;28;20111;-59
2022/06/19 02:56:00;;;;;;;2.50;0.85;;;;;;;;;;2100718;28;20032;-58
2022/06/19 02:57:19;;;;;;;1.73;0.70;;;;;;;;;;2100968;28;20478;-59
2022/06/19 02:58:38;;;;;;;4.13;0.90;;;;;;;;;;2099612;28;20487;-59
2022/06/19 02:59:57;;;;;;;3.05;0.90;;;;;;;;;;2100850;28;20041;-59
2022/06/19 03:01:16;;;;;;;1.02;0.57;;;;;;;;;;2101575;28;20398;-59
2022/06/19 03:02:35;;;;;;;5.22;1.02;;;;;;;;;;2101458;28;20029;-60
2022/06/19 03:03:54;;;;;;;2.45;0.77;;;;;;;;;;2100504;28;20035;-59
2022/06/19 03:05:19;;;;;;;1.23;0.80;;;;;;;;;;2099901;28;20020;-59
2022/06/19 03:06:38;;;;;;;2.90;0.63;;;;;;;;;;2100746;28;20498;-60
2022/06/19 03:07:57;;;;;;;1.65;0.70;;;;;;;;;;2101368;28;20474;-60
2022/06/19 03:09:16;;;;;;;1.92;0.52;;;;;;;;;;2101122;28;20029;-59
2022/06/19 03:10:35;;;;;;;1.48;0.60;;;;;;;;;;2100775;28;20401;-59
2022/06/19 03:11:55;;;;;;;1.63;0.95;;;;;;;;;;2099598;28;20067;-60
2022/06/19 03:13:16;;;;;;;8.13;0.73;;;;;;;;;;2100551;28;20025;-58
2022/06/19 03:14:35;;;;;;;1.67;0.60;;;;;;;;;;2099473;28;20029;-59
2022/06/19 03:16:02;;;;;;;1.23;0.50;;;;;;;;;;2099377;28;20102;-59
2022/06/19 03:17:21;;;;;;;1.83;0.80;;;;;;;;;;2101372;28;20112;-58
2022/06/19 03:18:42;;;;;;;2.40;0.95;;;;;;;;;;2101270;28;20537;-60
2022/06/19 03:20:01;;;;;;;4.28;0.82;;;;;;;;;;2101194;28;20032;-59
2022/06/19 03:21:20;;;;;;;1.15;0.50;;;;;;;;;;2099666;28;20397;-59
2022/06/19 03:22:38;;;;;;;1.55;0.90;;;;;;;;;;2100946;28;20032;-59
2022/06/19 03:23:57;;;;;;;3.42;1.15;;;;;;;;;;2101197;28;20044;-59
2022/06/19 03:25:16;;;;;;;2.15;0.70;;;;;;;;;;2100842;28;20025;-60
2022/06/19 03:26:35;;;;;;;3.92;0.70;;;;;;;;;;2100823;28;20028;-58
2022/06/19 03:27:54;;;;;;;1.92;0.52;;;;;;;;;;2100687;28;20016;-59
2022/06/19 03:29:13;;;;;;;0.68;0.50;;;;;;;;;;2099401;28;20037;-59
2022/06/19 03:30:32;;;;;;;4.78;0.70;;;;;;;;;;2100548;28;20025;-59
2022/06/19 03:31:51;;;;;;;1.42;0.88;;;;;;;;;;2100696;28;20036;-59
2022/06/19 03:33:09;;;;;;;3.22;0.70;;;;;;;;;;2099648;28;20029;-60
2022/06/19 03:34:28;;;;;;;2.33;0.90;;;;;;;;;;2099307;28;20033;-60
2022/06/19 03:35:47;;;;;;;1.92;0.73;;;;;;;;;;2100427;28;20032;-60
2022/06/19 03:37:06;;;;;;;1.42;0.70;;;;;;;;;;2100543;28;20063;-60
2022/06/19 03:38:25;;;;;;;4.20;0.68;;;;;;;;;;2101342;28;20024;-60
2022/06/19 03:39:44;;;;;;;0.95;0.50;;;;;;;;;;2100413;28;20033;-60
2022/06/19 03:41:03;;;;;;;3.80;0.90;;;;;;;;;;2098380;28;20046;-59
2022/06/19 03:42:22;;;;;;;2.83;0.65;;;;;;;;;;2097664;28;20546;-60
2022/06/19 03:43:41;;;;;;;4.55;0.88;;;;;;;;;;2099481;28;20571;-60
2022/06/19 03:45:00;;;;;;;1.60;0.63;;;;;;;;;;2099643;28;20035;-60
2022/06/19 03:46:19;;;;;;;1.27;0.55;;;;;;;;;;2100011;28;20114;-60
2022/06/19 03:47:39;;;;;;;2.92;0.82;;;;;;;;;;2097975;28;20115;-60
2022/06/19 03:48:58;;;;;;;1.85;0.60;;;;;;;;;;2100715;28;20028;-59
2022/06/19 03:50:18;;;;;;;1.67;0.77;;;;;;;;;;2098825;28;20041;-60
2022/06/19 03:51:37;;;;;;;2.67;0.63;;;;;;;;;;2099962;28;20414;-59
2022/06/19 03:52:55;;;;;;;1.83;0.60;;;;;;;;;;2100066;28;20032;-60
2022/06/19 03:54:14;;;;;;;2.50;0.60;;;;;;;;;;2099799;28;20065;-59
2022/06/19 03:55:33;;;;;;;0.75;0.65;;;;;;;;;;2099570;28;20050;-60
2022/06/19 03:56:52;;;;;;;2.22;0.70;;;;;;;;;;2100979;28;20039;-58
2022/06/19 03:58:11;;;;;;;2.67;0.70;;;;;;;;;;2101180;28;20501;-59
2022/06/19 03:59:30;;;;;;;5.20;1.48;;;;;;;;;;2099883;28;20028;-59
2022/06/19 04:00:49;;;;;;;2.25;0.82;;;;;;;;;;2099823;28;20391;-58
2022/06/19 04:02:09;;;;;;;4.40;0.70;;;;;;;;;;2100597;28;20040;-60
2022/06/19 04:03:28;;;;;;;1.35;0.60;;;;;;;;;;2101073;28;20035;-58
2022/06/19 04:04:47;;;;;;;1.38;0.60;;;;;;;;;;2100019;28;20157;-60
2022/06/19 04:06:07;;;;;;;1.20;0.50;;;;;;;;;;2100621;28;20028;-59
2022/06/19 04:07:26;;;;;;;3.50;0.80;;;;;;;;;;2100238;28;20036;-59
2022/06/19 04:08:46;;;;;;;7.85;0.93;;;;;;;;;;2099924;28;20111;-59
2022/06/19 04:10:05;;;;;;;3.08;0.80;;;;;;;;;;2099002;28;20048;-60
2022/06/19 04:11:25;;;;;;;1.85;0.73;;;;;;;;;;2098655;28;20474;-59
2022/06/19 04:12:44;;;;;;;0.90;0.60;;;;;;;;;;2100917;28;20020;-60
2022/06/19 04:14:03;;;;;;;3.00;0.73;;;;;;;;;;2101120;28;20028;-59
2022/06/19 04:15:22;;;;;;;2.13;0.60;;;;;;;;;;2100072;28;20107;-59
2022/06/19 04:16:43;;;;;;;2.15;0.65;;;;;;;;;;2099412;28;20130;-59
2022/06/19 04:18:02;;;;;;;3.63;0.68;;;;;;;;;;2097870;28;20021;-57
2022/06/19 04:19:21;;;;;;;1.27;0.57;;;;;;;;;;2099811;28;20024;-58
2022/06/19 04:20:40;;;;;;;2.08;0.68;;;;;;;;;;2100474;28;20103;-59
2022/06/19 04:21:59;;;;;;;3.15;0.73;;;;;;;;;;2100542;28;20584;-59
2022/06/19 04:23:18;;;;;;;1.60;0.65;;;;;;;;;;2100201;28;20039;-60
2022/06/19 04:24:37;;;;;;;2.30;0.93;;;;;;;;;;2099071;28;20086;-59
2022/06/19 04:25:56;;;;;;;6.38;0.80;;;;;;;;;;2101475;28;20025;-59
2022/06/19 04:27:15;;;;;;;2.00;0.60;;;;;;;;;;2100855;28;20029;-58
2022/06/19 04:28:34;;;;;;;3.30;0.57;;;;;;;;;;2100161;28;20036;-58
2022/06/19 04:29:53;;;;;;;5.85;0.98;;;;;;;;;;2099620;28;20033;-59
2022/06/19 04:31:11;;;;;;;2.78;0.65;;;;;;;;;;2100542;28;20049;-59
2022/06/19 04:32:30;;;;;;;1.40;0.55;;;;;;;;;;2101114;28;20095;-59
2022/06/19 04:33:50;;;;;;;1.45;0.60;;;;;;;;;;2100293;28;20479;-59
2022/06/19 04:35:09;;;;;;;2.80;0.60;;;;;;;;;;2100488;28;20483;-58
2022/06/19 04:36:29;;;;;;;1.00;0.50;;;;;;;;;;2102181;28;20483;-59
2022/06/19 04:37:48;;;;;;;1.30;0.80;;;;;;;;;;2100406;28;20032;-59
2022/06/19 04:39:07;;;;;;;2.65;0.55;;;;;;;;;;2100649;28;20114;-59
2022/06/19 04:40:28;;;;;;;1.73;0.95;;;;;;;;;;2100468;28;20394;-60
2022/06/19 04:41:47;;;;;;;1.38;0.60;;;;;;;;;;2100761;28;20395;-57
2022/06/19 04:43:06;;;;;;;3.67;0.60;;;;;;;;;;2102063;28;20032;-59
2022/06/19 04:44:26;;;;;;;1.92;1.10;;;;;;;;;;2101242;28;20446;-58
2022/06/19 04:45:45;;;;;;;1.15;0.47;;;;;;;;;;2100443;28;20028;-62
2022/06/19 04:47:04;;;;;;;5.38;1.00;;;;;;;;;;2099533;28;20064;-59
2022/06/19 04:48:25;;;;;;;1.83;0.60;;;;;;;;;;2101681;28;20036;-58
2022/06/19 04:49:44;;;;;;;1.35;0.63;;;;;;;;;;2101330;28;20020;-60
2022/06/19 04:51:03;;;;;;;1.77;0.85;;;;;;;;;;2101680;28;20071;-58
2022/06/19 04:52:22;;;;;;;2.17;0.38;;;;;;;;;;2101988;28;20490;-60
2022/06/19 04:53:41;;;;;;;1.65;0.52;;;;;;;;;;2101794;28;20035;-58
2022/06/19 04:55:00;;;;;;;1.65;0.63;;;;;;;;;;2101445;28;20032;-60
2022/06/19 04:56:20;;;;;;;4.22;0.55;;;;;;;;;;2100517;28;20102;-59
2022/06/19 04:57:39;;;;;;;1.42;0.63;;;;;;;;;;2101463;28;20032;-58
2022/06/19 04:58:58;;;;;;;1.25;0.52;;;;;;;;;;2101927;28;20032;-60
2022/06/19 05:00:19;;;;;;;2.30;0.60;;;;;;;;;;2100475;28;20045;-58
2022/06/19 05:01:38;;;;;;;1.02;0.43;;;;;;;;;;2103097;28;20498;-59
2022/06/19 05:02:57;;;;;;;0.90;0.50;;;;;;;;;;2100419;28;20020;-59
2022/06/19 05:04:16;;;;;;;2.40;0.75;;;;;;;;;;2101031;28;20506;-60
2022/06/19 05:05:35;;;;;;;1.35;0.50;;;;;;;;;;2100598;28;20501;-58
2022/06/19 05:06:53;;;;;;;2.25;0.40;;;;;;;;;;2100133;28;20501;-59
2022/06/19 05:08:12;;;;;;;2.25;0.50;;;;;;;;;;2100759;28;20494;-59
2022/06/19 05:09:31;;;;;;;5.47;0.77;;;;;;;;;;2102651;28;20033;-60
2022/06/19 05:10:50;;;;;;;2.50;0.52;;;;;;;;;;2101646;28;20036;-59
2022/06/19 05:12:09;;;;;;;1.42;0.40;;;;;;;;;;2100116;28;20017;-60
2022/06/19 05:13:28;;;;;;;2.78;1.02;;;;;;;;;;2101298;28;20499;-59
2022/06/19 05:14:47;;;;;;;2.80;0.93;;;;;;;;;;2100800;28;20028;-59
2022/06/19 05:16:07;;;;;;;3.60;0.50;;;;;;;;;;2100680;28;20033;-58
2022/06/19 05:17:26;;;;;;;1.25;0.60;;;;;;;;;;2102455;28;20024;-60
2022/06/19 05:18:45;;;;;;;1.33;0.40;;;;;;;;;;2101764;28;20490;-59
2022/06/19 05:20:04;;;;;;;2.95;0.47;;;;;;;;;;2101260;28;20072;-60
2022/06/19 05:21:24;;;;;;;2.50;0.50;;;;;;;;;;2101581;28;20033;-59
2022/06/19 05:22:43;;;;;;;1.55;0.60;;;;;;;;;;2102428;28;20032;-60
2022/06/19 05:24:04;;;;;;;1.30;0.45;;;;;;;;;;2099553;28;20036;-59
2022/06/19 05:25:23;;;;;;;2.72;0.40;;;;;;;;;;2101036;28;20379;-58
2022/06/19 05:26:41;;;;;;;1.73;0.47;;;;;;;;;;2099229;28;20494;-60
2022/06/19 05:28:00;;;;;;;1.58;0.32;;;;;;;;;;2099135;28;20095;-58
2022/06/19 05:29:19;;;;;;;1.50;0.40;;;;;;;;;;2101407;28;20028;-58
2022/06/19 05:30:38;;;;;;;0.68;0.55;;;;;;;;;;2100302;28;20029;-59
2022/06/19 05:31:57;;;;;;;1.42;0.43;;;;;;;;;;2101665;28;20028;-60
2022/06/19 05:33:16;;;;;;;1.20;0.50;;;;;;;;;;2100550;28;20486;-59
2022/06/19 05:34:36;;;;;;;4.38;0.52;;;;;;;;;;2102239;28;20032;-59
2022/06/19 05:35:55;;;;;;;0.30;0.30;;;;;;;;;;2101460;28;20040;-60
2022/06/19 05:37:14;;;;;;;1.15;0.60;;;;;;;;;;2099615;28;20585;-59
2022/06/19 05:38:33;;;;;;;1.55;0.35;;;;;;;;;;2100771;28;20032;-59
2022/06/19 05:39:52;;;;;;;0.73;0.30;;;;;;;;;;2102288;28;20032;-58
2022/06/19 05:41:12;;;;;;;0.95;0.40;;;;;;;;;;2099032;28;20041;-59
2022/06/19 05:42:31;;;;;;;0.93;0.20;;;;;;;;;;2100946;28;20474;-60
2022/06/19 05:43:50;;;;;;;0.95;0.40;;;;;;;;;;2099373;28;20036;-58
2022/06/19 05:45:09;;;;;;;1.05;0.30;;;;;;;;;;2097850;28;20055;-60
2022/06/19 05:46:27;;;;;;;1.33;0.40;;;;;;;;;;2100613;28;20029;-60
2022/06/19 05:47:46;;;;;;;6.40;0.47;;;;;;;;;;2101367;28;20111;-60
2022/06/19 05:49:05;;;;;;;0.80;0.32;;;;;;;;;;2098855;28;20044;-60
2022/06/19 05:50:25;;;;;;;1.73;0.40;;;;;;;;;;2101016;28;20037;-60
2022/06/19 05:51:44;;;;;;;1.45;0.30;;;;;;;;;;2098469;28;20032;-60
2022/06/19 05:53:03;;;;;;;0.77;0.28;;;;;;;;;;2101400;28;20107;-60
2022/06/19 05:54:22;;;;;;;1.63;0.40;;;;;;;;;;2100538;28;20020;-60
2022/06/19 05:55:41;;;;;;;2.13;0.50;;;;;;;;;;2099696;28;20032;-60
2022/06/19 05:57:00;;;;;;;1.20;0.57;;;;;;;;;;2099915;28;20467;-58
2022/06/19 05:58:19;;;;;;;1.63;0.80;;;;;;;;;;2101730;28;20032;-60
2022/06/19 05:59:37;;;;;;;2.17;0.30;;;;;;;;;;2100675;28;20024;-59
2022/06/19 06:00:56;;;;;;;1.77;0.30;;;;;;;;;;2100068;28;20040;-60
2022/06/19 06:02:16;;;;;;;1.25;0.30;;;;;;;;;;2100988;28;20037;-59
2022/06/19 06:03:35;;;;;;;0.98;0.35;;;;;;;;;;2101546;28;20108;-59
2022/06/19 06:04:54;;;;;;;2.47;0.35;;;;;;;;;;2102674;28;20024;-60
2022/06/19 06:06:15;;;;;;;1.33;0.32;;;;;;;;;;2100073;28;20044;-60
2022/06/19 06:07:34;;;;;;;0.85;0.30;;;;;;;;;;2101702;28;20119;-60
2022/06/19 06:08:53;;;;;;;1.20;0.30;;;;;;;;;;2100628;28;20494;-60
2022/06/19 06:10:11;;;;;;;2.42;0.40;;;;;;;;;;2100202;28;20063;-60
2022/06/19 06:11:30;;;;;;;1.60;0.32;;;;;;;;;;2101107;28;20032;-60
2022/06/19 06:12:49;;;;;;;1.83;0.30;;;;;;;;;;2101252;28;20024;-59
2022/06/19 06:14:08;;;;;;;1.20;0.47;;;;;;;;;;2100235;28;20055;-59
2022/06/19 06:15:27;;;;;;;4.30;0.50;;;;;;;;;;2099319;28;20406;-59
2022/06/19 06:16:46;;;;;;;1.75;0.38;;;;;;;;;;2098514;28;20024;-59
2022/06/19 06:18:05;;;;;;;1.85;0.30;;;;;;;;;;2101639;28;20460;-60
2022/06/19 06:19:24;;;;;;;0.55;0.20;;;;;;;;;;2101618;28;20119;-60
2022/06/19 06:20:43;;;;;;;1.00;0.38;;;;;;;;;;2101310;28;20024;-60
2022/06/19 06:22:03;;;;;;;0.95;0.40;;;;;;;;;;2099882;28;20028;-60
2022/06/19 06:23:23;;;;;;;0.60;0.20;;;;;;;;;;2099843;28;20398;-59
2022/06/19 06:24:41;;;;;;;2.22;0.35;;;;;;;;;;2100885;28;20032;-59
2022/06/19 06:26:01;;;;;;;0.77;0.30;;;;;;;;;;2099693;28;20036;-60
2022/06/19 06:27:20;;;;;;;3.10;0.50;;;;;;;;;;2100456;28;20111;-59
2022/06/19 06:28:40;;;;;;;1.75;0.30;;;;;;;;;;2101620;28;20505;-60
2022/06/19 06:29:59;;;;;;;2.28;0.32;;;;;;;;;;2100100;28;20455;-59
2022/06/19 06:31:18;;;;;;;5.57;0.50;;;;;;;;;;2100496;28;20028;-60
2022/06/19 06:32:37;;;;;;;1.05;0.45;;;;;;;;;;2102022;28;20033;-58
2022/06/19 06:33:57;;;;;;;1.30;0.57;;;;;;;;;;2100148;28;20033;-58
2022/06/19 06:35:16;;;;;;;0.70;0.22;;;;;;;;;;2101603;28;20063;-59
2022/06/19 06:36:35;;;;;;;0.65;0.30;;;;;;;;;;2102012;28;20033;-58
2022/06/19 06:37:57;;;;;;;2.00;0.40;;;;;;;;;;2099342;28;20486;-58
2022/06/19 06:39:16;;;;;;;0.60;0.20;;;;;;;;;;2100985;28;20036;-60
2022/06/19 06:40:35;;;;;;;1.27;0.40;;;;;;;;;;2101132;28;20060;-59
2022/06/19 06:41:54;;;;;;;0.57;0.30;;;;;;;;;;2100926;28;20055;-59
2022/06/19 06:43:13;;;;;;;1.65;0.30;;;;;;;;;;2102514;28;20044;-59
2022/06/19 06:44:32;;;;;;;1.80;0.30;;;;;;;;;;2100251;28;20032;-57
2022/06/19 06:45:51;;;;;;;1.27;0.40;;;;;;;;;;2099274;28;20063;-59
2022/06/19 06:47:10;;;;;;;1.65;0.30;;;;;;;;;;2099014;28;20067;-60
2022/06/19 06:48:30;;;;;;;0.40;0.20;;;;;;;;;;2100974;28;20028;-59
2022/06/19 06:49:49;;;;;;;0.95;0.30;;;;;;;;;;2101874;28;20024;-59
2022/06/19 06:51:10;;;;;;;0.65;0.30;;;;;;;;;;2100567;28;20032;-59
2022/06/19 06:52:29;;;;;;;0.75;0.22;;;;;;;;;;2098903;28;20020;-59
2022/06/19 06:53:48;;;;;;;0.35;0.30;;;;;;;;;;2098472;28;20025;-60
2022/06/19 06:55:07;;;;;;;0.43;0.30;;;;;;;;;;2100741;28;20028;-57
2022/06/19 06:56:33;;;;;;;1.00;0.28;;;;;;;;;;2100472;28;20028;-60
2022/06/19 06:57:52;;;;;;;1.60;0.28;;;;;;;;;;2100754;28;20064;-60
2022/06/19 06:59:11;;;;;;;0.55;0.30;;;;;;;;;;2099448;28;20493;-60
2022/06/19 07:00:30;;;;;;;1.90;0.55;;;;;;;;;;2098419;28;20123;-59
2022/06/19 07:01:49;;;;;;;0.88;0.20;;;;;;;;;;2101249;28;20466;-60
2022/06/19 07:03:09;;;;;;;4.05;0.57;;;;;;;;;;2101063;28;20032;-59
2022/06/19 07:04:28;;;;;;;0.35;0.30;;;;;;;;;;2101517;28;20029;-60
2022/06/19 07:05:47;;;;;;;0.70;0.40;;;;;;;;;;2100795;28;20040;-58
2022/06/19 07:07:06;;;;;;;1.48;0.30;;;;;;;;;;2098695;28;20224;-59
2022/06/19 07:08:25;;;;;;;1.05;0.50;;;;;;;;;;2100204;28;20040;-59
2022/06/19 07:09:44;;;;;;;0.90;0.50;;;;;;;;;;2098407;28;20413;-60
2022/06/19 07:11:02;;;;;;;1.30;0.50;;;;;;;;;;2098277;28;20041;-60
2022/06/19 07:12:21;;;;;;;0.90;0.40;;;;;;;;;;2100701;28;20447;-60
2022/06/19 07:13:40;;;;;;;1.17;0.30;;;;;;;;;;2100812;28;20149;-59
2022/06/19 07:14:59;;;;;;;0.77;0.40;;;;;;;;;;2099303;28;20024;-60
2022/06/19 07:16:18;;;;;;;0.60;0.47;;;;;;;;;;2100740;28;20020;-59
2022/06/19 07:17:37;;;;;;;0.65;0.47;;;;;;;;;;2100366;28;20028;-57
2022/06/19 07:18:56;;;;;;;0.88;0.30;;;;;;;;;;2101491;28;20028;-59
2022/06/19 07:20:14;;;;;;;1.38;0.30;;;;;;;;;;2101012;28;20021;-59
2022/06/19 07:21:34;;;;;;;0.38;0.20;;;;;;;;;;2100271;28;20390;-59
2022/06/19 07:22:53;;;;;;;0.68;0.30;;;;;;;;;;2098234;28;20110;-59
2022/06/19 07:24:11;;;;;;;1.33;0.30;;;;;;;;;;2099932;28;20036;-58
2022/06/19 07:25:31;;;;;;;2.47;0.82;;;;;;;;;;2100926;28;20033;-60
2022/06/19 07:26:50;;;;;;;1.60;0.40;;;;;;;;;;2099514;28;20453;-60
2022/06/19 07:28:12;;;;;;;1.50;1.10;;;;;;;;;;2100040;28;20399;-60
2022/06/19 07:29:31;;;;;;;0.75;0.30;;;;;;;;;;2099959;28;20405;-60
2022/06/19 07:30:51;;;;;;;0.70;0.35;;;;;;;;;;2099918;28;20017;-61
2022/06/19 07:32:10;;;;;;;1.08;0.20;;;;;;;;;;2100595;28;20497;-61
2022/06/19 07:33:29;;;;;;;0.88;0.30;;;;;;;;;;2100682;28;20036;-60
2022/06/19 07:34:48;;;;;;;0.75;0.22;;;;;;;;;;2100376;28;20494;-60
2022/06/19 07:36:08;;;;;;;0.52;0.20;;;;;;;;;;2101939;28;20027;-59
2022/06/19 07:37:27;;;;;;;0.70;0.17;;;;;;;;;;2100289;28;20483;-59
2022/06/19 07:38:46;;;;;;;0.93;0.32;;;;;;;;;;2099896;28;20037;-58
2022/06/19 07:40:05;;;;;;;0.30;0.30;;;;;;;;;;2100649;28;20436;-58
2022/06/19 07:41:24;;;;;;;0.60;0.32;;;;;;;;;;2099896;28;20020;-59
2022/06/19 07:42:44;;;;;;;0.47;0.30;;;;;;;;;;2099166;28;20032;-60
2022/06/19 07:44:02;;;;;;;0.95;0.30;;;;;;;;;;2099785;28;20650;-58
2022/06/19 07:45:21;;;;;;;0.35;0.25;;;;;;;;;;2100936;28;20058;-60
2022/06/19 07:50:15;;;;;;;1.25;0.10;;;;;;;;;;2100887;28;20028;-60
2022/06/19 07:51:34;;;;;;;1.17;0.40;;;;;;;;;;2100752;28;20044;-60
2022/06/19 07:52:53;;;;;;;1.08;0.35;;;;;;;;;;2098652;28;20025;-59
2022/06/19 07:54:13;;;;;;;0.85;0.20;;;;;;;;;;2101318;28;20474;-59
2022/06/19 07:55:32;;;;;;;1.13;0.40;;;;;;;;;;2096810;28;20036;-59
2022/06/19 07:56:50;;;;;;;1.35;0.52;;;;;;;;;;2097583;28;20033;-60
2022/06/19 07:58:09;;;;;;;0.50;0.25;;;;;;;;;;2100364;28;20024;-60
2022/06/19 07:59:28;;;;;;;0.45;0.20;;;;;;;;;;2099237;28;21187;-59
2022/06/19 08:00:47;;;;;;;0.40;0.30;;;;;;;;;;2100051;28;20032;-59
2022/06/19 08:02:06;;;;;;;0.60;0.20;;;;;;;;;;2100794;28;20032;-60
2022/06/19 08:03:25;;;;;;;2.53;0.38;;;;;;;;;;2099442;28;20052;-58
2022/06/19 08:04:44;;;;;;;0.55;0.32;;;;;;;;;;2100543;28;20115;-59